createdAt,value
2018-12-14T00:01:39.447Z,102367.42
2018-12-14T00:04:10.723Z,102361.78
2018-12-14T00:06:41.625Z,102370.09
2018-12-14T00:09:13.487Z,102366.63
2018-12-14T00:11:45.616Z,102371.41
2018-12-14T00:14:13.990Z,102372.78
2018-12-14T00:16:44.268Z,102368.42
2018-12-14T00:19:14.004Z,102373.70
2018-12-14T00:21:46.930Z,102377.20
2018-12-14T00:24:17.496Z,102373.34
2018-12-14T00:26:47.429Z,102365.94
2018-12-14T00:29:23.483Z,102372.95
2018-12-14T00:31:57.509Z,102372.45
2018-12-14T00:34:24.828Z,102372.41
2018-12-14T00:36:55.846Z,102366.73
2018-12-14T00:39:26.712Z,102375.00
2018-12-14T00:42:04.104Z,102374.64
2018-12-14T00:44:37.295Z,102370.28
2018-12-14T00:47:08.554Z,102371.59
2018-12-14T00:49:39.531Z,102376.81
2018-12-14T00:52:10.101Z,102383.35
2018-12-14T00:54:42.005Z,102382.86
2018-12-14T00:57:17.412Z,102385.91
2018-12-14T00:59:47.363Z,102385.04
2018-12-14T01:02:29.338Z,102391.58
2018-12-14T01:04:59.657Z,102393.73
2018-12-14T01:07:29.715Z,102396.73
2018-12-14T01:10:01.743Z,102391.94
2018-12-14T01:12:32.197Z,102397.22
2018-12-14T01:15:02.724Z,102396.78
2018-12-14T01:17:34.567Z,102399.34
2018-12-14T01:20:05.033Z,102407.55
2018-12-14T01:22:38.053Z,102411.86
2018-12-14T01:25:10.637Z,102405.75
2018-12-14T01:27:41.105Z,102413.16
2018-12-14T01:30:11.235Z,102410.05
2018-12-14T01:32:41.631Z,102416.57
2018-12-14T01:35:11.785Z,102412.17
2018-12-14T01:37:41.766Z,102409.13
2018-12-14T01:40:12.287Z,102413.53
2018-12-14T01:42:45.896Z,102416.09
2018-12-14T01:45:18.421Z,102414.85
2018-12-14T01:47:48.437Z,102410.86
2018-12-14T01:50:18.417Z,102408.23
2018-12-14T01:52:48.267Z,102411.30
2018-12-14T01:55:18.441Z,102413.47
2018-12-14T01:57:48.669Z,102408.23
2018-12-14T02:00:18.407Z,102408.19
2018-12-14T02:02:48.507Z,102402.04
2018-12-14T02:05:18.729Z,102405.06
2018-12-14T02:07:48.733Z,102400.67
2018-12-14T02:10:19.149Z,102400.66
2018-12-14T02:12:51.583Z,102407.62
2018-12-14T02:15:21.564Z,102400.53
2018-12-14T02:17:51.407Z,102396.23
2018-12-14T02:20:21.313Z,102399.23
2018-12-14T02:22:56.470Z,102391.83
2018-12-14T02:25:26.409Z,102403.22
2018-12-14T02:27:56.469Z,102401.47
2018-12-14T02:30:53.009Z,102402.20
2018-12-14T02:33:23.435Z,102399.55
2018-12-14T02:35:56.689Z,102403.84
2018-12-14T02:38:26.995Z,102401.23
2018-12-14T02:41:00.159Z,102393.39
2018-12-14T02:43:30.605Z,102399.48
2018-12-14T02:46:01.626Z,102401.23
2018-12-14T02:48:32.089Z,102394.69
2018-12-14T02:51:03.910Z,102397.80
2018-12-14T02:53:34.380Z,102392.09
2018-12-14T02:56:05.282Z,102388.17
2018-12-14T02:58:38.279Z,102392.09
2018-12-14T03:01:09.211Z,102386.04
2018-12-14T03:03:42.086Z,102393.39
2018-12-14T03:06:12.341Z,102395.25
2018-12-14T03:08:42.537Z,102388.66
2018-12-14T03:11:13.267Z,102392.14
2018-12-14T03:13:43.493Z,102386.87
2018-12-14T03:16:13.774Z,102390.77
2018-12-14T03:18:44.552Z,102392.14
2018-12-14T03:21:14.723Z,102396.00
2018-12-14T03:23:44.787Z,102392.50
2018-12-14T03:26:15.222Z,102391.21
2018-12-14T03:28:45.244Z,102395.11
2018-12-14T03:31:15.474Z,102397.24
2018-12-14T03:33:48.453Z,102395.06
2018-12-14T03:36:18.906Z,102394.12
2018-12-14T03:38:49.814Z,102395.00
2018-12-14T03:41:20.044Z,102392.39
2018-12-14T03:43:50.052Z,102391.94
2018-12-14T03:46:21.416Z,102389.70
2018-12-14T03:48:51.647Z,102391.02
2018-12-14T03:51:28.830Z,102395.36
2018-12-14T03:53:59.168Z,102394.00
2018-12-14T03:56:29.687Z,102389.20
2018-12-14T03:58:59.484Z,102396.66
2018-12-14T04:01:30.216Z,102387.91
2018-12-14T04:04:02.695Z,102391.32
2018-12-14T04:06:35.226Z,102394.30
2018-12-14T04:09:06.519Z,102395.05
2018-12-14T04:11:37.594Z,102397.16
2018-12-14T04:14:11.938Z,102400.58
2018-12-14T04:16:42.345Z,102407.11
2018-12-14T04:19:12.652Z,102407.11
2018-12-14T04:21:45.622Z,102408.02
2018-12-14T04:24:16.761Z,102409.31
2018-12-14T04:26:47.093Z,102397.14
2018-12-14T04:29:18.016Z,102398.45
2018-12-14T04:31:50.250Z,102397.97
2018-12-14T04:34:20.525Z,102400.63
2018-12-14T04:36:50.753Z,102404.99
2018-12-14T04:39:21.259Z,102402.81
2018-12-14T04:41:51.812Z,102410.71
2018-12-14T04:44:23.136Z,102403.76
2018-12-14T04:46:53.378Z,102407.23
2018-12-14T04:49:23.804Z,102407.20
2018-12-14T04:51:54.258Z,102408.96
2018-12-14T04:54:24.147Z,102411.57
2018-12-14T04:56:54.474Z,102409.91
2018-12-14T04:59:26.667Z,102408.17
2018-12-14T05:01:57.499Z,102414.25
2018-12-14T05:04:29.231Z,102417.31
2018-12-14T05:07:05.577Z,102416.00
2018-12-14T05:09:37.050Z,102414.32
2018-12-14T05:12:07.564Z,102411.71
2018-12-14T05:14:38.815Z,102407.34
2018-12-14T05:17:09.467Z,102407.78
2018-12-14T05:19:43.159Z,102399.52
2018-12-14T05:22:13.609Z,102395.98
2018-12-14T05:24:43.781Z,102399.45
2018-12-14T05:27:18.038Z,102395.10
2018-12-14T05:29:48.059Z,102395.98
2018-12-14T05:32:18.159Z,102397.28
2018-12-14T05:34:48.420Z,102389.90
2018-12-14T05:37:18.720Z,102395.53
2018-12-14T05:39:48.752Z,102395.10
2018-12-14T05:42:19.691Z,102405.56
2018-12-14T05:44:50.010Z,102403.81
2018-12-14T05:47:39.519Z,102397.28
2018-12-14T05:50:10.035Z,102404.67
2018-12-14T05:52:40.234Z,102398.64
2018-12-14T05:55:10.773Z,102398.14
2018-12-14T05:57:41.723Z,102402.05
2018-12-14T06:00:12.137Z,102402.44
2018-12-14T06:02:41.693Z,102396.22
2018-12-14T06:05:12.270Z,102397.00
2018-12-14T06:07:42.877Z,102406.14
2018-12-14T06:10:13.169Z,102402.12
2018-12-14T06:12:45.595Z,102408.57
2018-12-14T06:15:18.614Z,102408.05
2018-12-14T06:17:48.637Z,102417.11
2018-12-14T06:20:19.137Z,102415.25
2018-12-14T06:22:48.929Z,102425.59
2018-12-14T06:25:19.368Z,102425.91
2018-12-14T06:27:55.471Z,102433.23
2018-12-14T06:30:26.207Z,102440.56
2018-12-14T06:32:56.398Z,102446.20
2018-12-14T06:35:24.858Z,102444.45
2018-12-14T06:37:58.129Z,102441.84
2018-12-14T06:40:28.664Z,102445.30
2018-12-14T06:42:58.515Z,102447.06
2018-12-14T06:45:28.752Z,102448.39
2018-12-14T06:48:03.219Z,102450.70
2018-12-14T06:50:34.447Z,102442.63
2018-12-14T06:53:08.729Z,102445.77
2018-12-14T06:55:38.799Z,102407.38
2018-12-14T06:58:08.778Z,102456.41
2018-12-14T07:00:44.624Z,102461.70
2018-12-14T07:03:15.112Z,102458.44
2018-12-14T07:05:44.663Z,102461.85
2018-12-14T07:08:14.893Z,102467.85
2018-12-14T07:10:45.913Z,102467.78
2018-12-14T07:13:21.852Z,102471.64
2018-12-14T07:15:46.834Z,102472.44
2018-12-14T07:18:16.946Z,102472.44
2018-12-14T07:20:47.020Z,102475.48
2018-12-14T07:23:28.270Z,102474.25
2018-12-14T07:25:58.574Z,102478.30
2018-12-14T07:28:29.529Z,102484.84
2018-12-14T07:31:06.367Z,102480.05
2018-12-14T07:33:38.711Z,102481.48
2018-12-14T07:36:09.615Z,102480.25
2018-12-14T07:38:39.540Z,102489.09
2018-12-14T07:41:10.290Z,102488.30
2018-12-14T07:43:41.061Z,102491.92
2018-12-14T07:46:12.178Z,102489.12
2018-12-14T07:48:43.436Z,102493.71
2018-12-14T07:51:16.532Z,102485.98
2018-12-14T07:53:47.212Z,102494.02
2018-12-14T07:56:17.472Z,102496.39
2018-12-14T07:58:50.468Z,102494.77
2018-12-14T08:01:23.104Z,102503.20
2018-12-14T08:03:57.525Z,102511.20
2018-12-14T08:06:26.356Z,102514.63
2018-12-14T08:08:57.508Z,102518.94
2018-12-14T08:11:28.760Z,102519.30
2018-12-14T08:14:02.766Z,102523.20
2018-12-14T08:16:37.583Z,102526.65
2018-12-14T08:19:10.705Z,102531.45
2018-12-14T08:21:40.803Z,102533.68
2018-12-14T08:24:12.996Z,102539.41
2018-12-14T08:26:47.405Z,102537.73
2018-12-14T08:29:23.305Z,102544.34
2018-12-14T08:31:52.953Z,102542.59
2018-12-14T08:34:23.813Z,102550.92
2018-12-14T08:36:54.941Z,102546.14
2018-12-14T08:39:31.257Z,102549.31
2018-12-14T08:42:09.814Z,102545.00
2018-12-14T08:44:42.094Z,102546.25
2018-12-14T08:47:14.164Z,102542.97
2018-12-14T08:49:45.385Z,102543.02
2018-12-14T08:52:16.039Z,102548.50
2018-12-14T08:54:49.963Z,102547.33
2018-12-14T08:57:18.048Z,102549.73
2018-12-14T08:59:53.535Z,102549.48
2018-12-14T09:02:24.248Z,102556.90
2018-12-14T09:04:54.822Z,102568.62
2018-12-14T09:07:28.802Z,102561.57
2018-12-14T09:10:00.026Z,102567.19
2018-12-14T09:12:31.292Z,102575.84
2018-12-14T09:15:07.971Z,102574.39
2018-12-14T09:17:39.421Z,102577.34
2018-12-14T09:20:12.162Z,102573.40
2018-12-14T09:22:43.619Z,102578.13
2018-12-14T09:25:14.639Z,102575.87
2018-12-14T09:27:46.740Z,102575.45
2018-12-14T09:30:18.157Z,102581.53
2018-12-14T09:32:49.596Z,102587.08
2018-12-14T09:35:19.475Z,102583.48
2018-12-14T09:37:52.814Z,102589.61
2018-12-14T09:40:23.561Z,102587.67
2018-12-14T09:42:53.937Z,102585.56
2018-12-14T09:45:27.968Z,102592.86
2018-12-14T09:47:58.581Z,102590.55
2018-12-14T09:50:30.727Z,102592.58
2018-12-14T09:53:01.796Z,102584.60
2018-12-14T09:55:32.522Z,102584.55
2018-12-14T09:58:03.675Z,102584.48
2018-12-14T10:00:33.373Z,102585.40
2018-12-14T10:03:03.677Z,102585.97
2018-12-14T10:05:38.143Z,102584.34
2018-12-14T10:08:11.317Z,102585.89
2018-12-14T10:10:41.792Z,102580.66
2018-12-14T10:13:13.609Z,102576.67
2018-12-14T10:15:47.209Z,102585.16
2018-12-14T10:18:28.387Z,102586.59
2018-12-14T10:20:59.267Z,102574.55
2018-12-14T10:23:32.072Z,102584.74
2018-12-14T10:26:03.459Z,102582.83
2018-12-14T10:28:34.365Z,102583.16
2018-12-14T10:31:05.186Z,102585.60
2018-12-14T10:33:43.963Z,102579.37
2018-12-14T10:36:15.250Z,102583.61
2018-12-14T10:38:54.357Z,102572.21
2018-12-14T10:41:34.116Z,102580.74
2018-12-14T10:44:13.513Z,102586.24
2018-12-14T10:46:47.505Z,102584.05
2018-12-14T10:49:18.409Z,102583.93
2018-12-14T10:51:55.199Z,102582.98
2018-12-14T10:54:30.004Z,102578.16
2018-12-14T10:57:04.595Z,102581.70
2018-12-14T10:59:41.617Z,102578.97
2018-12-14T11:02:17.247Z,102580.26
2018-12-14T11:04:58.926Z,102580.32
2018-12-14T11:07:33.145Z,102574.34
2018-12-14T11:10:13.813Z,102577.51
2018-12-14T11:12:45.770Z,102578.58
2018-12-14T11:15:26.093Z,102571.52
2018-12-14T11:17:50.297Z,102572.47
2018-12-14T11:20:34.793Z,102570.86
2018-12-14T11:23:11.387Z,102569.70
2018-12-14T11:25:48.474Z,102570.26
2018-12-14T11:28:24.037Z,102569.84
2018-12-14T11:30:57.246Z,102568.58
2018-12-14T11:33:30.781Z,102572.94
2018-12-14T11:36:02.465Z,102573.37
2018-12-14T11:38:40.048Z,102570.27
2018-12-14T11:41:10.814Z,102567.27
2018-12-14T11:43:45.068Z,102564.27
2018-12-14T11:46:13.754Z,102567.39
2018-12-14T11:48:44.277Z,102561.77
2018-12-14T11:51:23.596Z,102564.06
2018-12-14T11:54:00.139Z,102565.44
2018-12-14T11:56:42.776Z,102559.05
2018-12-14T11:59:17.717Z,102559.65
2018-12-14T12:01:53.698Z,102557.95
2018-12-14T12:04:29.761Z,102557.47
2018-12-14T12:07:04.181Z,102551.41
2018-12-14T12:09:38.075Z,102549.73
2018-12-14T12:12:25.365Z,102552.54
2018-12-14T12:15:00.356Z,102548.27
2018-12-14T12:17:38.626Z,102554.16
2018-12-14T12:20:18.790Z,102547.67
2018-12-14T12:22:57.390Z,102545.04
2018-12-14T12:25:44.133Z,102547.61
2018-12-14T12:28:22.884Z,102542.80
2018-12-14T12:30:56.466Z,102532.63
2018-12-14T12:33:33.654Z,102538.20
2018-12-14T12:36:14.400Z,102541.10
2018-12-14T12:38:47.412Z,102539.14
2018-12-14T12:41:23.060Z,102538.99
2018-12-14T12:43:54.356Z,102543.62
2018-12-14T12:46:28.589Z,102540.89
2018-12-14T12:48:59.423Z,102544.70
2018-12-14T12:51:31.371Z,102543.67
2018-12-14T12:54:10.416Z,102543.98
2018-12-14T12:56:44.668Z,102545.66
2018-12-14T12:59:13.964Z,102549.48
2018-12-14T13:01:45.504Z,102539.83
2018-12-14T13:04:16.218Z,102538.02
2018-12-14T13:06:53.406Z,102536.66
2018-12-14T13:09:25.002Z,102536.70
2018-12-14T13:11:55.913Z,102535.80
2018-12-14T13:14:30.321Z,102544.13
2018-12-14T13:17:03.380Z,102546.73
2018-12-14T13:19:33.980Z,102544.13
2018-12-14T13:22:05.804Z,102550.66
2018-12-14T13:24:38.794Z,102540.64
2018-12-14T13:27:20.115Z,102547.23
2018-12-14T13:29:45.132Z,102547.68
2018-12-14T13:32:18.544Z,102545.00
2018-12-14T13:34:52.521Z,102550.66
2018-12-14T13:37:23.166Z,102550.25
2018-12-14T13:39:59.589Z,102551.09
2018-12-14T13:42:28.852Z,102552.30
2018-12-14T13:45:01.290Z,102558.78
2018-12-14T13:47:32.088Z,102564.45
2018-12-14T13:50:06.204Z,102562.69
2018-12-14T13:52:45.342Z,102563.13
2018-12-14T13:55:20.055Z,102558.70
2018-12-14T13:57:56.319Z,102565.23
2018-12-14T14:00:33.551Z,102559.96
2018-12-14T14:03:06.388Z,102567.74
2018-12-14T14:05:37.667Z,102564.19
2018-12-14T14:08:15.393Z,102578.07
2018-12-14T14:10:48.656Z,102576.22
2018-12-14T14:13:23.653Z,102572.66
2018-12-14T14:15:55.956Z,102576.52
2018-12-14T14:18:31.126Z,102576.02
2018-12-14T14:21:08.217Z,102579.44
2018-12-14T14:23:41.018Z,102584.17
2018-12-14T14:26:15.369Z,102593.70
2018-12-14T14:28:48.885Z,102590.58
2018-12-14T14:31:20.850Z,102596.22
2018-12-14T14:33:52.828Z,102593.17
2018-12-14T14:36:26.960Z,102598.28
2018-12-14T14:38:55.939Z,102601.62
2018-12-14T14:41:26.580Z,102611.58
2018-12-14T14:43:57.626Z,102607.22
2018-12-14T14:46:28.832Z,102611.49
2018-12-14T14:49:01.512Z,102607.52
2018-12-14T14:51:38.286Z,102613.49
2018-12-14T14:54:19.666Z,102617.39
2018-12-14T14:56:46.051Z,102622.97
2018-12-14T14:59:16.119Z,102626.03
2018-12-14T15:01:48.436Z,102627.27
2018-12-14T15:04:24.706Z,102632.04
2018-12-14T15:06:56.325Z,102632.44
2018-12-14T15:09:30.130Z,102634.59
2018-12-14T15:12:01.506Z,102634.97
2018-12-14T15:14:56.517Z,102630.61
2018-12-14T15:17:30.121Z,102639.77
2018-12-14T15:20:04.514Z,102637.06
2018-12-14T15:22:45.174Z,102636.98
2018-12-14T15:25:19.530Z,102641.70
2018-12-14T15:27:55.552Z,102645.05
2018-12-14T15:30:38.479Z,102642.79
2018-12-14T15:33:16.856Z,102643.16
2018-12-14T15:35:53.081Z,102653.61
2018-12-14T15:38:36.075Z,102656.99
2018-12-14T15:41:13.764Z,102655.12
2018-12-14T15:43:47.356Z,102655.47
2018-12-14T15:46:23.104Z,102661.55
2018-12-14T15:49:19.282Z,102657.06
2018-12-14T15:51:38.389Z,102661.27
2018-12-14T15:54:13.015Z,102665.18
2018-12-14T15:56:58.543Z,102665.55
2018-12-14T15:59:22.330Z,102667.26
2018-12-14T16:01:57.470Z,102664.59
2018-12-14T16:04:39.929Z,102668.93
2018-12-14T16:07:22.606Z,102668.42
2018-12-14T16:10:04.264Z,102665.87
2018-12-14T16:12:43.768Z,102672.42
2018-12-14T16:15:19.945Z,102671.99
2018-12-14T16:17:55.230Z,102671.12
2018-12-14T16:20:43.101Z,102669.78
2018-12-14T16:23:18.777Z,102671.45
2018-12-14T16:26:25.033Z,102672.34
2018-12-14T16:28:47.915Z,102669.72
2018-12-14T16:31:31.113Z,102673.19
2018-12-14T16:34:01.255Z,102673.13
2018-12-14T16:36:39.126Z,102673.13
2018-12-14T16:39:10.153Z,102677.89
2018-12-14T16:41:40.031Z,102686.95
2018-12-14T16:44:10.930Z,102669.98
2018-12-14T16:46:41.476Z,102676.42
2018-12-14T16:49:12.036Z,102673.30
2018-12-14T16:51:48.410Z,102678.88
2018-12-14T16:54:19.769Z,102683.23
2018-12-14T16:56:51.073Z,102683.23
2018-12-14T16:59:21.353Z,102685.27
2018-12-14T17:01:52.290Z,102686.54
2018-12-14T17:04:22.325Z,102691.24
2018-12-14T17:06:52.153Z,102686.39
2018-12-14T17:09:22.881Z,102685.81
2018-12-14T17:11:55.991Z,102686.66
2018-12-14T17:14:26.153Z,102696.08
2018-12-14T17:16:56.125Z,102690.41
2018-12-14T17:19:25.841Z,102690.77
2018-12-14T17:21:56.192Z,102685.97
2018-12-14T17:24:26.369Z,102688.67
2018-12-14T17:26:56.037Z,102682.06
2018-12-14T17:29:30.511Z,102685.97
2018-12-14T17:31:58.721Z,102678.06
2018-12-14T17:34:28.835Z,102675.78
2018-12-14T17:36:58.838Z,102680.48
2018-12-14T17:39:30.465Z,102679.20
2018-12-14T17:42:00.693Z,102674.33
2018-12-14T17:44:31.322Z,102674.27
2018-12-14T17:47:04.231Z,102665.89
2018-12-14T17:49:37.968Z,102668.41
2018-12-14T17:52:08.347Z,102675.66
2018-12-14T17:54:41.068Z,102668.10
2018-12-14T17:57:11.894Z,102673.61
2018-12-14T17:59:42.385Z,102673.91
2018-12-14T18:02:13.434Z,102675.09
2018-12-14T18:04:44.320Z,102680.18
2018-12-14T18:07:15.629Z,102683.17
2018-12-14T18:09:54.015Z,102683.53
2018-12-14T18:12:35.193Z,102689.11
2018-12-14T18:15:04.742Z,102686.86
2018-12-14T18:17:37.520Z,102688.55
2018-12-14T18:20:09.991Z,102690.22
2018-12-14T18:22:48.534Z,102695.33
2018-12-14T18:25:22.300Z,102700.55
2018-12-14T18:27:55.606Z,102703.58
2018-12-14T18:30:27.328Z,102702.30
2018-12-14T18:33:00.751Z,102703.67
2018-12-14T18:35:35.229Z,102709.83
2018-12-14T18:38:07.263Z,102716.80
2018-12-14T18:40:39.920Z,102716.38
2018-12-14T18:43:12.228Z,102717.33
2018-12-14T18:45:53.349Z,102712.05
2018-12-14T18:48:34.766Z,102716.02
2018-12-14T18:51:07.357Z,102716.48
2018-12-14T18:53:39.365Z,102722.96
2018-12-14T18:56:12.772Z,102729.48
2018-12-14T18:59:04.061Z,102729.41
2018-12-14T19:01:36.640Z,102731.56
2018-12-14T19:04:09.219Z,102737.13
2018-12-14T19:06:48.315Z,102738.37
2018-12-14T19:09:16.802Z,102738.17
2018-12-14T19:11:51.772Z,102745.84
2018-12-14T19:14:29.954Z,102748.70
2018-12-14T19:17:05.981Z,102753.00
2018-12-14T19:19:37.974Z,102751.00
2018-12-14T19:22:08.362Z,102757.55
2018-12-14T19:24:39.574Z,102759.35
2018-12-14T19:27:10.378Z,102766.13
2018-12-14T19:29:41.092Z,102758.81
2018-12-14T19:32:16.844Z,102770.92
2018-12-14T19:34:49.101Z,102775.20
2018-12-14T19:37:26.786Z,102769.47
2018-12-14T19:39:58.445Z,102768.95
2018-12-14T19:42:32.354Z,102777.53
2018-12-14T19:45:02.706Z,102780.95
2018-12-14T19:47:33.920Z,102779.56
2018-12-14T19:50:05.015Z,102785.66
2018-12-14T19:52:36.370Z,102787.88
2018-12-14T19:55:06.430Z,102779.63
2018-12-14T19:57:36.956Z,102787.45
2018-12-14T20:00:08.928Z,102796.67
2018-12-14T20:02:40.828Z,102796.25
2018-12-14T20:05:15.990Z,102793.64
2018-12-14T20:07:46.923Z,102797.20
2018-12-14T20:10:22.264Z,102791.98
2018-12-14T20:12:53.521Z,102801.56
2018-12-14T20:15:24.648Z,102797.71
2018-12-14T20:17:56.729Z,102799.44
2018-12-14T20:20:27.279Z,102803.81
2018-12-14T20:22:57.409Z,102797.20
2018-12-14T20:25:31.712Z,102802.96
2018-12-14T20:28:02.400Z,102806.84
2018-12-14T20:30:34.609Z,102799.47
2018-12-14T20:33:05.438Z,102809.03
2018-12-14T20:35:35.785Z,102808.19
2018-12-14T20:38:07.946Z,102810.37
2018-12-14T20:40:42.111Z,102807.73
2018-12-14T20:43:13.209Z,102803.36
2018-12-14T20:45:43.115Z,102808.61
2018-12-14T20:48:15.445Z,102804.27
2018-12-14T20:50:52.500Z,102807.30
2018-12-14T20:53:26.827Z,102807.30
2018-12-14T20:56:00.961Z,102811.67
2018-12-14T20:58:30.843Z,102802.94
2018-12-14T21:01:08.192Z,102805.15
2018-12-14T21:03:38.787Z,102804.75
2018-12-14T21:06:08.640Z,102811.73
2018-12-14T21:08:38.887Z,102808.77
2018-12-14T21:11:09.084Z,102811.80
2018-12-14T21:13:42.316Z,102806.97
2018-12-14T21:16:15.179Z,102818.72
2018-12-14T21:18:44.074Z,102809.13
2018-12-14T21:21:14.240Z,102806.97
2018-12-14T21:23:44.423Z,102809.22
2018-12-14T21:26:19.839Z,102811.47
2018-12-14T21:28:54.424Z,102815.38
2018-12-14T21:31:26.641Z,102816.69
2018-12-14T21:34:03.719Z,102815.38
2018-12-14T21:36:34.312Z,102807.92
2018-12-14T21:39:05.571Z,102810.59
2018-12-14T21:41:44.001Z,102813.56
2018-12-14T21:44:16.068Z,102814.80
2018-12-14T21:46:46.001Z,102809.48
2018-12-14T21:49:16.420Z,102808.09
2018-12-14T21:51:51.044Z,102801.56
2018-12-14T21:54:24.005Z,102797.66
2018-12-14T21:56:58.733Z,102806.78
2018-12-14T21:59:31.872Z,102802.05
2018-12-14T22:02:04.943Z,102805.35
2018-12-14T22:04:34.387Z,102800.95
2018-12-14T22:07:12.501Z,102795.57
2018-12-14T22:09:44.468Z,102795.64
2018-12-14T22:12:14.188Z,102797.46
2018-12-14T22:14:44.316Z,102804.86
2018-12-14T22:17:16.626Z,102797.46
2018-12-14T22:19:48.894Z,102798.70
2018-12-14T22:22:19.606Z,102792.61
2018-12-14T22:24:49.848Z,102791.30
2018-12-14T22:27:19.993Z,102794.40
2018-12-14T22:29:50.725Z,102791.36
2018-12-14T22:32:21.124Z,102787.55
2018-12-14T22:34:51.877Z,102787.58
2018-12-14T22:37:21.946Z,102785.91
2018-12-14T22:39:51.917Z,102783.79
2018-12-14T22:42:21.781Z,102783.17
2018-12-14T22:44:56.914Z,102791.30
2018-12-14T22:47:26.549Z,102792.48
2018-12-14T22:49:57.148Z,102787.55
2018-12-14T22:52:26.918Z,102788.34
2018-12-14T22:54:56.985Z,102785.18
2018-12-14T22:57:29.319Z,102781.98
2018-12-14T23:00:02.261Z,102782.41
2018-12-14T23:02:34.602Z,102778.86
2018-12-14T23:05:13.912Z,102776.67
2018-12-14T23:07:44.538Z,102779.70
2018-12-14T23:10:15.939Z,102778.30
2018-12-14T23:12:47.846Z,102780.39
2018-12-14T23:15:18.992Z,102788.73
2018-12-14T23:17:52.346Z,102781.27
2018-12-14T23:20:23.357Z,102782.64
2018-12-14T23:23:03.619Z,102780.84
2018-12-14T23:25:36.512Z,102783.45
2018-12-14T23:28:08.269Z,102780.75
2018-12-14T23:30:37.989Z,102789.94
2018-12-14T23:33:24.822Z,102786.68
2018-12-14T23:35:56.464Z,102786.70
2018-12-14T23:38:33.037Z,102779.14
2018-12-14T23:41:03.153Z,102781.44
2018-12-14T23:43:36.605Z,102787.53
2018-12-14T23:46:06.545Z,102791.90
2018-12-14T23:48:37.305Z,102786.67
2018-12-14T23:51:07.224Z,102786.33
2018-12-14T23:53:37.158Z,102786.44
2018-12-14T23:56:06.755Z,102784.03
2018-12-14T23:58:39.597Z,102783.00
